sensor_id;sensor_type;location;lat;lon;timestamp;P1;durP1;ratioP1;P2;durP2;ratioP2
10557;SDS011;5327;47.238;-2.304;2022-09-03T00:00:44;24.33;;;11.73;;
10557;SDS011;5327;47.238;-2.304;2022-09-03T00:03:33;23.33;;;11.83;;
10557;SDS011;5327;47.238;-2.304;2022-09-03T00:06:07;26.87;;;13.57;;
10557;SDS011;5327;47.238;-2.304;2022-09-03T00:08:43;21.93;;;11.50;;
10557;SDS011;5327;47.238;-2.304;2022-09-03T00:11:13;18.63;;;10.90;;
10557;SDS011;5327;47.238;-2.304;2022-09-03T00:13:50;30.83;;;12.10;;
10557;SDS011;5327;47.238;-2.304;2022-09-03T00:16:18;23.40;;;12.53;;
10557;SDS011;5327;47.238;-2.304;2022-09-03T00:18:50;25.77;;;11.63;;
10557;SDS011;5327;47.238;-2.304;2022-09-03T00:21:21;32.90;;;13.43;;
10557;SDS011;5327;47.238;-2.304;2022-09-03T00:23:49;30.00;;;13.77;;
10557;SDS011;5327;47.238;-2.304;2022-09-03T00:26:17;25.50;;;10.70;;
10557;SDS011;5327;47.238;-2.304;2022-09-03T00:28:49;28.23;;;14.37;;
10557;SDS011;5327;47.238;-2.304;2022-09-03T00:31:21;29.23;;;13.83;;
10557;SDS011;5327;47.238;-2.304;2022-09-03T00:33:48;25.20;;;14.23;;
10557;SDS011;5327;47.238;-2.304;2022-09-03T00:36:17;28.43;;;13.73;;
10557;SDS011;5327;47.238;-2.304;2022-09-03T00:38:45;27.87;;;15.97;;
10557;SDS011;5327;47.238;-2.304;2022-09-03T00:41:16;27.30;;;14.50;;
10557;SDS011;5327;47.238;-2.304;2022-09-03T00:49:12;26.90;;;14.27;;
10557;SDS011;5327;47.238;-2.304;2022-09-03T00:51:53;30.93;;;15.90;;
10557;SDS011;5327;47.238;-2.304;2022-09-03T00:54:22;32.10;;;15.33;;
10557;SDS011;5327;47.238;-2.304;2022-09-03T01:04:50;25.60;;;15.80;;
10557;SDS011;5327;47.238;-2.304;2022-09-03T01:12:17;24.67;;;14.40;;
10557;SDS011;5327;47.238;-2.304;2022-09-03T01:15:00;25.40;;;16.90;;
10557;SDS011;5327;47.238;-2.304;2022-09-03T01:30:26;40.93;;;21.17;;
10557;SDS011;5327;47.238;-2.304;2022-09-03T01:38:04;32.47;;;20.07;;
10557;SDS011;5327;47.238;-2.304;2022-09-03T01:53:43;31.23;;;21.13;;
10557;SDS011;5327;47.238;-2.304;2022-09-03T01:56:18;31.57;;;21.20;;
10557;SDS011;5327;47.238;-2.304;2022-09-03T01:58:51;33.80;;;21.80;;
10557;SDS011;5327;47.238;-2.304;2022-09-03T02:01:26;35.10;;;23.50;;
10557;SDS011;5327;47.238;-2.304;2022-09-03T02:03:54;36.27;;;22.80;;
10557;SDS011;5327;47.238;-2.304;2022-09-03T02:06:24;34.83;;;23.97;;
10557;SDS011;5327;47.238;-2.304;2022-09-03T02:08:50;34.40;;;23.50;;
10557;SDS011;5327;47.238;-2.304;2022-09-03T02:11:16;34.33;;;23.73;;
10557;SDS011;5327;47.238;-2.304;2022-09-03T02:13:52;37.30;;;26.30;;
10557;SDS011;5327;47.238;-2.304;2022-09-03T02:16:23;37.50;;;25.80;;
10557;SDS011;5327;47.238;-2.304;2022-09-03T02:18:53;41.40;;;25.53;;
10557;SDS011;5327;47.238;-2.304;2022-09-03T02:21:21;43.30;;;27.57;;
10557;SDS011;5327;47.238;-2.304;2022-09-03T02:23:48;42.07;;;29.17;;
10557;SDS011;5327;47.238;-2.304;2022-09-03T02:26:18;42.50;;;26.87;;
10557;SDS011;5327;47.238;-2.304;2022-09-03T02:28:45;44.23;;;28.00;;
10557;SDS011;5327;47.238;-2.304;2022-09-03T02:31:11;37.47;;;27.40;;
10557;SDS011;5327;47.238;-2.304;2022-09-03T02:33:38;35.20;;;27.57;;
10557;SDS011;5327;47.238;-2.304;2022-09-03T02:36:07;49.33;;;27.50;;
10557;SDS011;5327;47.238;-2.304;2022-09-03T02:38:33;35.47;;;26.50;;
10557;SDS011;5327;47.238;-2.304;2022-09-03T02:41:00;36.37;;;26.70;;
10557;SDS011;5327;47.238;-2.304;2022-09-03T02:43:32;40.80;;;26.57;;
10557;SDS011;5327;47.238;-2.304;2022-09-03T02:46:00;40.00;;;25.70;;
10557;SDS011;5327;47.238;-2.304;2022-09-03T02:48:27;38.00;;;26.00;;
10557;SDS011;5327;47.238;-2.304;2022-09-03T02:50:53;41.63;;;27.07;;
10557;SDS011;5327;47.238;-2.304;2022-09-03T02:53:19;46.93;;;27.00;;
10557;SDS011;5327;47.238;-2.304;2022-09-03T02:55:45;43.97;;;27.80;;
10557;SDS011;5327;47.238;-2.304;2022-09-03T02:58:12;40.27;;;27.30;;
10557;SDS011;5327;47.238;-2.304;2022-09-03T03:00:38;38.63;;;26.07;;
10557;SDS011;5327;47.238;-2.304;2022-09-03T03:03:04;44.50;;;31.27;;
10557;SDS011;5327;47.238;-2.304;2022-09-03T03:05:50;55.13;;;33.03;;
10557;SDS011;5327;47.238;-2.304;2022-09-03T03:08:16;46.93;;;30.80;;
10557;SDS011;5327;47.238;-2.304;2022-09-03T03:10:45;52.37;;;31.73;;
10557;SDS011;5327;47.238;-2.304;2022-09-03T03:13:11;45.27;;;31.43;;
10557;SDS011;5327;47.238;-2.304;2022-09-03T03:15:37;50.17;;;33.00;;
10557;SDS011;5327;47.238;-2.304;2022-09-03T03:18:03;46.93;;;33.10;;
10557;SDS011;5327;47.238;-2.304;2022-09-03T03:20:29;62.50;;;35.27;;
10557;SDS011;5327;47.238;-2.304;2022-09-03T03:22:55;61.50;;;33.67;;
10557;SDS011;5327;47.238;-2.304;2022-09-03T03:25:22;57.25;;;38.42;;
10557;SDS011;5327;47.238;-2.304;2022-09-03T03:27:48;53.30;;;36.33;;
10557;SDS011;5327;47.238;-2.304;2022-09-03T03:30:14;49.63;;;36.10;;
10557;SDS011;5327;47.238;-2.304;2022-09-03T03:32:40;58.80;;;33.43;;
10557;SDS011;5327;47.238;-2.304;2022-09-03T03:35:06;61.07;;;35.80;;
10557;SDS011;5327;47.238;-2.304;2022-09-03T03:37:32;62.87;;;37.20;;
10557;SDS011;5327;47.238;-2.304;2022-09-03T03:39:59;52.07;;;35.63;;
10557;SDS011;5327;47.238;-2.304;2022-09-03T03:42:25;54.77;;;37.17;;
10557;SDS011;5327;47.238;-2.304;2022-09-03T03:44:51;53.20;;;36.77;;
10557;SDS011;5327;47.238;-2.304;2022-09-03T03:47:17;51.40;;;35.50;;
10557;SDS011;5327;47.238;-2.304;2022-09-03T03:49:43;54.13;;;36.13;;
10557;SDS011;5327;47.238;-2.304;2022-09-03T03:52:09;54.53;;;35.90;;
10557;SDS011;5327;47.238;-2.304;2022-09-03T03:54:35;49.73;;;33.53;;
10557;SDS011;5327;47.238;-2.304;2022-09-03T03:57:02;57.77;;;34.87;;
10557;SDS011;5327;47.238;-2.304;2022-09-03T03:59:28;52.53;;;31.13;;
10557;SDS011;5327;47.238;-2.304;2022-09-03T04:01:54;63.97;;;34.50;;
10557;SDS011;5327;47.238;-2.304;2022-09-03T04:04:20;54.67;;;33.03;;
10557;SDS011;5327;47.238;-2.304;2022-09-03T04:06:46;61.53;;;33.83;;
10557;SDS011;5327;47.238;-2.304;2022-09-03T04:09:12;56.00;;;34.17;;
10557;SDS011;5327;47.238;-2.304;2022-09-03T04:11:38;51.00;;;33.90;;
10557;SDS011;5327;47.238;-2.304;2022-09-03T04:14:04;57.50;;;33.13;;
10557;SDS011;5327;47.238;-2.304;2022-09-03T04:16:30;49.10;;;30.70;;
10557;SDS011;5327;47.238;-2.304;2022-09-03T04:18:57;45.70;;;29.93;;
10557;SDS011;5327;47.238;-2.304;2022-09-03T04:21:27;45.90;;;30.90;;
10557;SDS011;5327;47.238;-2.304;2022-09-03T04:23:54;46.87;;;30.30;;
10557;SDS011;5327;47.238;-2.304;2022-09-03T04:26:22;41.83;;;28.03;;
10557;SDS011;5327;47.238;-2.304;2022-09-03T04:28:48;38.60;;;28.00;;
10557;SDS011;5327;47.238;-2.304;2022-09-03T04:31:14;43.07;;;27.53;;
10557;SDS011;5327;47.238;-2.304;2022-09-03T04:33:41;43.93;;;27.67;;
10557;SDS011;5327;47.238;-2.304;2022-09-03T04:36:08;41.00;;;26.53;;
10557;SDS011;5327;47.238;-2.304;2022-09-03T04:38:36;40.90;;;25.37;;
10557;SDS011;5327;47.238;-2.304;2022-09-03T04:41:03;51.57;;;27.73;;
10557;SDS011;5327;47.238;-2.304;2022-09-03T04:43:29;49.67;;;28.93;;
10557;SDS011;5327;47.238;-2.304;2022-09-03T04:45:56;51.77;;;26.97;;
10557;SDS011;5327;47.238;-2.304;2022-09-03T04:48:22;45.33;;;26.50;;
10557;SDS011;5327;47.238;-2.304;2022-09-03T04:50:48;38.00;;;25.33;;
10557;SDS011;5327;47.238;-2.304;2022-09-03T04:53:14;45.57;;;25.63;;
10557;SDS011;5327;47.238;-2.304;2022-09-03T04:55:40;36.70;;;25.40;;
10557;SDS011;5327;47.238;-2.304;2022-09-03T04:58:06;35.73;;;23.83;;
10557;SDS011;5327;47.238;-2.304;2022-09-03T05:00:34;38.90;;;24.37;;
10557;SDS011;5327;47.238;-2.304;2022-09-03T05:03:00;48.33;;;26.90;;
10557;SDS011;5327;47.238;-2.304;2022-09-03T05:05:28;44.83;;;27.47;;
10557;SDS011;5327;47.238;-2.304;2022-09-03T05:07:58;37.70;;;26.20;;
10557;SDS011;5327;47.238;-2.304;2022-09-03T05:10:26;39.80;;;23.63;;
10557;SDS011;5327;47.238;-2.304;2022-09-03T05:12:59;44.53;;;25.87;;
10557;SDS011;5327;47.238;-2.304;2022-09-03T05:15:26;38.03;;;25.80;;
10557;SDS011;5327;47.238;-2.304;2022-09-03T05:17:55;38.07;;;24.73;;
10557;SDS011;5327;47.238;-2.304;2022-09-03T05:20:21;32.87;;;23.20;;
10557;SDS011;5327;47.238;-2.304;2022-09-03T05:22:48;41.43;;;22.70;;
10557;SDS011;5327;47.238;-2.304;2022-09-03T05:25:14;38.00;;;24.73;;
10557;SDS011;5327;47.238;-2.304;2022-09-03T05:27:40;35.80;;;23.20;;
10557;SDS011;5327;47.238;-2.304;2022-09-03T05:30:07;36.10;;;23.33;;
10557;SDS011;5327;47.238;-2.304;2022-09-03T05:32:33;41.30;;;24.87;;
10557;SDS011;5327;47.238;-2.304;2022-09-03T05:34:59;36.67;;;22.90;;
10557;SDS011;5327;47.238;-2.304;2022-09-03T05:37:25;40.90;;;22.77;;
10557;SDS011;5327;47.238;-2.304;2022-09-03T05:39:51;41.30;;;23.13;;
10557;SDS011;5327;47.238;-2.304;2022-09-03T05:42:18;35.73;;;21.57;;
10557;SDS011;5327;47.238;-2.304;2022-09-03T05:44:45;30.40;;;20.80;;
10557;SDS011;5327;47.238;-2.304;2022-09-03T05:47:13;34.30;;;19.50;;
10557;SDS011;5327;47.238;-2.304;2022-09-03T05:49:40;29.97;;;19.77;;
10557;SDS011;5327;47.238;-2.304;2022-09-03T05:52:06;37.20;;;18.70;;
10557;SDS011;5327;47.238;-2.304;2022-09-03T05:54:34;37.60;;;21.23;;
10557;SDS011;5327;47.238;-2.304;2022-09-03T05:57:00;34.47;;;20.60;;
10557;SDS011;5327;47.238;-2.304;2022-09-03T05:59:26;30.73;;;18.90;;
10557;SDS011;5327;47.238;-2.304;2022-09-03T06:01:52;38.10;;;20.87;;
10557;SDS011;5327;47.238;-2.304;2022-09-03T06:04:18;32.90;;;18.90;;
10557;SDS011;5327;47.238;-2.304;2022-09-03T06:06:45;39.93;;;19.80;;
10557;SDS011;5327;47.238;-2.304;2022-09-03T06:09:12;34.20;;;19.97;;
10557;SDS011;5327;47.238;-2.304;2022-09-03T06:11:39;37.43;;;19.40;;
10557;SDS011;5327;47.238;-2.304;2022-09-03T06:14:07;42.23;;;19.20;;
10557;SDS011;5327;47.238;-2.304;2022-09-03T06:16:35;41.30;;;19.17;;
10557;SDS011;5327;47.238;-2.304;2022-09-03T06:19:01;39.57;;;19.43;;
10557;SDS011;5327;47.238;-2.304;2022-09-03T06:21:30;48.00;;;24.90;;
10557;SDS011;5327;47.238;-2.304;2022-09-03T06:23:56;48.33;;;19.90;;
10557;SDS011;5327;47.238;-2.304;2022-09-03T06:26:23;32.40;;;17.87;;
10557;SDS011;5327;47.238;-2.304;2022-09-03T06:28:49;33.47;;;17.80;;
10557;SDS011;5327;47.238;-2.304;2022-09-03T06:31:19;27.87;;;16.63;;
10557;SDS011;5327;47.238;-2.304;2022-09-03T06:33:45;25.60;;;16.50;;
10557;SDS011;5327;47.238;-2.304;2022-09-03T06:36:12;33.77;;;16.87;;
10557;SDS011;5327;47.238;-2.304;2022-09-03T06:38:39;33.73;;;15.80;;
10557;SDS011;5327;47.238;-2.304;2022-09-03T06:41:07;29.87;;;17.03;;
10557;SDS011;5327;47.238;-2.304;2022-09-03T06:43:35;34.33;;;15.13;;
10557;SDS011;5327;47.238;-2.304;2022-09-03T06:48:28;27.40;;;14.30;;
10557;SDS011;5327;47.238;-2.304;2022-09-03T06:53:25;35.03;;;14.70;;
10557;SDS011;5327;47.238;-2.304;2022-09-03T06:55:52;20.43;;;12.13;;
10557;SDS011;5327;47.238;-2.304;2022-09-03T06:58:18;25.07;;;11.87;;
10557;SDS011;5327;47.238;-2.304;2022-09-03T07:00:46;24.50;;;11.30;;
10557;SDS011;5327;47.238;-2.304;2022-09-03T07:03:13;31.60;;;12.83;;
10557;SDS011;5327;47.238;-2.304;2022-09-03T07:05:40;25.47;;;11.00;;
10557;SDS011;5327;47.238;-2.304;2022-09-03T07:08:07;27.47;;;11.50;;
10557;SDS011;5327;47.238;-2.304;2022-09-03T07:10:35;21.47;;;11.20;;
10557;SDS011;5327;47.238;-2.304;2022-09-03T07:13:02;24.17;;;12.30;;
10557;SDS011;5327;47.238;-2.304;2022-09-03T07:15:28;23.83;;;11.70;;
10557;SDS011;5327;47.238;-2.304;2022-09-03T07:17:54;25.30;;;11.67;;
10557;SDS011;5327;47.238;-2.304;2022-09-03T07:20:20;33.50;;;14.00;;
10557;SDS011;5327;47.238;-2.304;2022-09-03T07:22:46;85.33;;;23.10;;
10557;SDS011;5327;47.238;-2.304;2022-09-03T07:25:12;32.57;;;14.73;;
10557;SDS011;5327;47.238;-2.304;2022-09-03T07:27:38;35.77;;;14.93;;
10557;SDS011;5327;47.238;-2.304;2022-09-03T07:30:17;45.63;;;17.17;;
10557;SDS011;5327;47.238;-2.304;2022-09-03T07:32:58;30.80;;;15.30;;
10557;SDS011;5327;47.238;-2.304;2022-09-03T07:35:28;40.50;;;15.73;;
10557;SDS011;5327;47.238;-2.304;2022-09-03T07:37:54;24.27;;;12.60;;
10557;SDS011;5327;47.238;-2.304;2022-09-03T07:40:20;26.20;;;11.33;;
10557;SDS011;5327;47.238;-2.304;2022-09-03T07:42:46;26.43;;;13.77;;
10557;SDS011;5327;47.238;-2.304;2022-09-03T07:45:12;22.83;;;11.30;;
10557;SDS011;5327;47.238;-2.304;2022-09-03T07:47:45;22.83;;;10.50;;
10557;SDS011;5327;47.238;-2.304;2022-09-03T07:50:13;18.70;;;11.00;;
10557;SDS011;5327;47.238;-2.304;2022-09-03T07:52:40;26.80;;;10.77;;
10557;SDS011;5327;47.238;-2.304;2022-09-03T07:55:06;24.03;;;13.27;;
10557;SDS011;5327;47.238;-2.304;2022-09-03T07:57:33;18.30;;;10.90;;
10557;SDS011;5327;47.238;-2.304;2022-09-03T07:59:59;23.10;;;10.80;;
10557;SDS011;5327;47.238;-2.304;2022-09-03T08:02:25;17.37;;;9.83;;
10557;SDS011;5327;47.238;-2.304;2022-09-03T08:04:51;25.20;;;10.87;;
10557;SDS011;5327;47.238;-2.304;2022-09-03T08:07:17;17.40;;;9.40;;
10557;SDS011;5327;47.238;-2.304;2022-09-03T08:09:43;21.80;;;11.47;;
10557;SDS011;5327;47.238;-2.304;2022-09-03T08:12:09;31.00;;;14.13;;
10557;SDS011;5327;47.238;-2.304;2022-09-03T08:14:35;25.83;;;11.77;;
10557;SDS011;5327;47.238;-2.304;2022-09-03T08:17:01;23.37;;;12.17;;
10557;SDS011;5327;47.238;-2.304;2022-09-03T08:19:27;31.27;;;11.60;;
10557;SDS011;5327;47.238;-2.304;2022-09-03T08:21:53;30.17;;;13.00;;
10557;SDS011;5327;47.238;-2.304;2022-09-03T08:24:19;25.87;;;10.87;;
10557;SDS011;5327;47.238;-2.304;2022-09-03T08:26:48;32.30;;;12.77;;
10557;SDS011;5327;47.238;-2.304;2022-09-03T08:29:14;24.10;;;11.70;;
10557;SDS011;5327;47.238;-2.304;2022-09-03T08:31:40;27.30;;;12.60;;
10557;SDS011;5327;47.238;-2.304;2022-09-03T08:34:07;35.30;;;13.43;;
10557;SDS011;5327;47.238;-2.304;2022-09-03T08:36:36;29.63;;;12.63;;
10557;SDS011;5327;47.238;-2.304;2022-09-03T08:39:04;23.53;;;10.77;;
10557;SDS011;5327;47.238;-2.304;2022-09-03T08:44:28;25.73;;;11.73;;
10557;SDS011;5327;47.238;-2.304;2022-09-03T08:49:31;21.37;;;9.43;;
10557;SDS011;5327;47.238;-2.304;2022-09-03T08:52:00;21.27;;;10.00;;
10557;SDS011;5327;47.238;-2.304;2022-09-03T08:54:28;21.83;;;10.30;;
10557;SDS011;5327;47.238;-2.304;2022-09-03T08:56:55;24.93;;;8.70;;
10557;SDS011;5327;47.238;-2.304;2022-09-03T08:59:24;20.33;;;9.23;;
10557;SDS011;5327;47.238;-2.304;2022-09-03T09:05:50;22.90;;;10.93;;
10557;SDS011;5327;47.238;-2.304;2022-09-03T09:15:47;25.23;;;9.50;;
10557;SDS011;5327;47.238;-2.304;2022-09-03T09:20:50;15.37;;;7.63;;
10557;SDS011;5327;47.238;-2.304;2022-09-03T09:23:23;16.33;;;8.83;;
10557;SDS011;5327;47.238;-2.304;2022-09-03T09:25:52;20.57;;;9.20;;
10557;SDS011;5327;47.238;-2.304;2022-09-03T09:28:20;18.83;;;9.30;;
10557;SDS011;5327;47.238;-2.304;2022-09-03T09:30:47;20.83;;;9.20;;
10557;SDS011;5327;47.238;-2.304;2022-09-03T09:33:14;24.87;;;10.30;;
10557;SDS011;5327;47.238;-2.304;2022-09-03T09:35:41;27.77;;;10.73;;
10557;SDS011;5327;47.238;-2.304;2022-09-03T09:38:07;18.90;;;8.90;;
10557;SDS011;5327;47.238;-2.304;2022-09-03T09:40:35;25.00;;;10.43;;
10557;SDS011;5327;47.238;-2.304;2022-09-03T09:43:03;21.93;;;10.10;;
10557;SDS011;5327;47.238;-2.304;2022-09-03T09:45:29;21.67;;;10.03;;
10557;SDS011;5327;47.238;-2.304;2022-09-03T09:47:58;30.63;;;11.20;;
10557;SDS011;5327;47.238;-2.304;2022-09-03T09:50:24;35.70;;;12.07;;
10557;SDS011;5327;47.238;-2.304;2022-09-03T09:53:03;20.37;;;8.73;;
10557;SDS011;5327;47.238;-2.304;2022-09-03T09:55:47;24.37;;;10.03;;
10557;SDS011;5327;47.238;-2.304;2022-09-03T09:58:13;23.47;;;10.27;;
10557;SDS011;5327;47.238;-2.304;2022-09-03T10:00:39;29.10;;;10.50;;
10557;SDS011;5327;47.238;-2.304;2022-09-03T10:03:09;19.83;;;9.80;;
10557;SDS011;5327;47.238;-2.304;2022-09-03T10:05:37;26.13;;;9.73;;
10557;SDS011;5327;47.238;-2.304;2022-09-03T10:08:06;31.63;;;12.10;;
10557;SDS011;5327;47.238;-2.304;2022-09-03T10:10:41;28.90;;;11.80;;
10557;SDS011;5327;47.238;-2.304;2022-09-03T10:13:12;25.40;;;10.97;;
10557;SDS011;5327;47.238;-2.304;2022-09-03T10:15:47;27.97;;;10.63;;
10557;SDS011;5327;47.238;-2.304;2022-09-03T10:20:57;30.50;;;9.47;;
10557;SDS011;5327;47.238;-2.304;2022-09-03T10:23:28;23.23;;;9.80;;
10557;SDS011;5327;47.238;-2.304;2022-09-03T10:28:25;25.73;;;8.30;;
10557;SDS011;5327;47.238;-2.304;2022-09-03T10:31:16;26.30;;;8.27;;
10557;SDS011;5327;47.238;-2.304;2022-09-03T10:33:46;31.10;;;8.73;;
10557;SDS011;5327;47.238;-2.304;2022-09-03T10:36:23;11.03;;;5.03;;
10557;SDS011;5327;47.238;-2.304;2022-09-03T10:38:58;20.60;;;6.30;;
10557;SDS011;5327;47.238;-2.304;2022-09-03T10:46:45;12.40;;;5.47;;
10557;SDS011;5327;47.238;-2.304;2022-09-03T10:49:23;17.37;;;5.10;;
10557;SDS011;5327;47.238;-2.304;2022-09-03T10:59:50;12.20;;;4.77;;
10557;SDS011;5327;47.238;-2.304;2022-09-03T11:02:28;12.00;;;4.97;;
10557;SDS011;5327;47.238;-2.304;2022-09-03T11:05:00;16.10;;;6.53;;
10557;SDS011;5327;47.238;-2.304;2022-09-03T11:07:30;7.87;;;4.60;;
10557;SDS011;5327;47.238;-2.304;2022-09-03T11:18:19;25.23;;;7.33;;
10557;SDS011;5327;47.238;-2.304;2022-09-03T11:20:46;38.57;;;11.93;;
10557;SDS011;5327;47.238;-2.304;2022-09-03T11:23:13;11.53;;;5.60;;
10557;SDS011;5327;47.238;-2.304;2022-09-03T11:25:51;15.27;;;8.23;;
10557;SDS011;5327;47.238;-2.304;2022-09-03T11:28:25;15.40;;;6.00;;
10557;SDS011;5327;47.238;-2.304;2022-09-03T11:33:26;20.33;;;7.53;;
10557;SDS011;5327;47.238;-2.304;2022-09-03T11:35:59;13.63;;;6.47;;
10557;SDS011;5327;47.238;-2.304;2022-09-03T11:38:26;17.63;;;6.83;;
10557;SDS011;5327;47.238;-2.304;2022-09-03T11:48:45;53.63;;;49.77;;
10557;SDS011;5327;47.238;-2.304;2022-09-03T11:51:19;21.93;;;18.47;;
10557;SDS011;5327;47.238;-2.304;2022-09-03T11:56:42;65.63;;;60.63;;
10557;SDS011;5327;47.238;-2.304;2022-09-03T12:01:47;22.13;;;5.17;;
10557;SDS011;5327;47.238;-2.304;2022-09-03T12:04:16;19.00;;;8.00;;
10557;SDS011;5327;47.238;-2.304;2022-09-03T12:06:48;54.97;;;51.03;;
10557;SDS011;5327;47.238;-2.304;2022-09-03T12:14:39;15.30;;;5.03;;
10557;SDS011;5327;47.238;-2.304;2022-09-03T12:19:43;15.33;;;5.40;;
10557;SDS011;5327;47.238;-2.304;2022-09-03T12:22:13;14.87;;;5.20;;
10557;SDS011;5327;47.238;-2.304;2022-09-03T12:24:40;18.00;;;5.30;;
10557;SDS011;5327;47.238;-2.304;2022-09-03T12:27:09;23.90;;;7.60;;
10557;SDS011;5327;47.238;-2.304;2022-09-03T12:29:37;22.13;;;9.33;;
10557;SDS011;5327;47.238;-2.304;2022-09-03T12:32:08;23.90;;;15.50;;
10557;SDS011;5327;47.238;-2.304;2022-09-03T12:34:36;19.37;;;6.20;;
10557;SDS011;5327;47.238;-2.304;2022-09-03T12:37:02;21.80;;;10.13;;
10557;SDS011;5327;47.238;-2.304;2022-09-03T12:39:28;30.23;;;11.80;;
10557;SDS011;5327;47.238;-2.304;2022-09-03T12:42:02;21.80;;;6.50;;
10557;SDS011;5327;47.238;-2.304;2022-09-03T12:44:30;16.50;;;5.13;;
10557;SDS011;5327;47.238;-2.304;2022-09-03T12:47:15;27.93;;;7.63;;
10557;SDS011;5327;47.238;-2.304;2022-09-03T12:49:43;16.83;;;6.33;;
10557;SDS011;5327;47.238;-2.304;2022-09-03T12:57:31;23.47;;;7.00;;
10557;SDS011;5327;47.238;-2.304;2022-09-03T13:00:03;16.10;;;4.70;;
10557;SDS011;5327;47.238;-2.304;2022-09-03T13:02:34;14.63;;;4.30;;
10557;SDS011;5327;47.238;-2.304;2022-09-03T13:05:02;11.50;;;4.87;;
10557;SDS011;5327;47.238;-2.304;2022-09-03T13:07:30;10.60;;;4.00;;
10557;SDS011;5327;47.238;-2.304;2022-09-03T13:10:05;7.63;;;3.80;;
10557;SDS011;5327;47.238;-2.304;2022-09-03T13:12:45;6.20;;;3.23;;
10557;SDS011;5327;47.238;-2.304;2022-09-03T13:15:21;9.37;;;3.30;;
10557;SDS011;5327;47.238;-2.304;2022-09-03T13:20:34;15.93;;;3.90;;
10557;SDS011;5327;47.238;-2.304;2022-09-03T13:30:44;6.83;;;3.23;;
10557;SDS011;5327;47.238;-2.304;2022-09-03T13:36:01;6.63;;;2.80;;
10557;SDS011;5327;47.238;-2.304;2022-09-03T13:41:13;13.40;;;4.50;;
10557;SDS011;5327;47.238;-2.304;2022-09-03T13:46:19;10.30;;;3.60;;
10557;SDS011;5327;47.238;-2.304;2022-09-03T13:48:48;13.23;;;3.40;;
10557;SDS011;5327;47.238;-2.304;2022-09-03T13:51:48;7.80;;;3.30;;
10557;SDS011;5327;47.238;-2.304;2022-09-03T13:54:26;13.20;;;3.30;;
10557;SDS011;5327;47.238;-2.304;2022-09-03T13:59:55;9.07;;;3.30;;
10557;SDS011;5327;47.238;-2.304;2022-09-03T14:02:35;7.50;;;3.30;;
10557;SDS011;5327;47.238;-2.304;2022-09-03T14:05:10;10.80;;;3.93;;
10557;SDS011;5327;47.238;-2.304;2022-09-03T14:15:23;10.80;;;3.43;;
10557;SDS011;5327;47.238;-2.304;2022-09-03T14:20:46;18.23;;;5.23;;
10557;SDS011;5327;47.238;-2.304;2022-09-03T14:23:43;13.23;;;4.60;;
10557;SDS011;5327;47.238;-2.304;2022-09-03T14:26:27;12.73;;;4.77;;
10557;SDS011;5327;47.238;-2.304;2022-09-03T14:31:40;20.73;;;5.80;;
10557;SDS011;5327;47.238;-2.304;2022-09-03T14:34:35;18.13;;;5.07;;
10557;SDS011;5327;47.238;-2.304;2022-09-03T14:37:06;18.00;;;4.50;;
10557;SDS011;5327;47.238;-2.304;2022-09-03T14:59:06;14.23;;;4.50;;
10557;SDS011;5327;47.238;-2.304;2022-09-03T15:01:17;20.60;;;4.83;;
10557;SDS011;5327;47.238;-2.304;2022-09-03T15:11:47;14.57;;;4.83;;
10557;SDS011;5327;47.238;-2.304;2022-09-03T15:16:55;29.03;;;6.50;;
10557;SDS011;5327;47.238;-2.304;2022-09-03T15:19:47;13.77;;;4.07;;
10557;SDS011;5327;47.238;-2.304;2022-09-03T15:23:01;16.67;;;4.73;;
10557;SDS011;5327;47.238;-2.304;2022-09-03T15:25:19;13.47;;;5.07;;
10557;SDS011;5327;47.238;-2.304;2022-09-03T15:30:35;21.30;;;4.97;;
10557;SDS011;5327;47.238;-2.304;2022-09-03T15:33:12;16.10;;;4.90;;
10557;SDS011;5327;47.238;-2.304;2022-09-03T15:43:10;18.00;;;5.03;;
10557;SDS011;5327;47.238;-2.304;2022-09-03T15:45:48;11.50;;;3.20;;
10557;SDS011;5327;47.238;-2.304;2022-09-03T15:48:35;17.50;;;4.37;;
10557;SDS011;5327;47.238;-2.304;2022-09-03T15:58:46;26.73;;;6.00;;
10557;SDS011;5327;47.238;-2.304;2022-09-03T16:09:21;22.30;;;6.13;;
10557;SDS011;5327;47.238;-2.304;2022-09-03T16:12:04;23.10;;;5.70;;
10557;SDS011;5327;47.238;-2.304;2022-09-03T16:14:42;18.00;;;5.00;;
10557;SDS011;5327;47.238;-2.304;2022-09-03T16:17:17;23.03;;;5.33;;
10557;SDS011;5327;47.238;-2.304;2022-09-03T16:19:47;17.47;;;5.40;;
10557;SDS011;5327;47.238;-2.304;2022-09-03T16:27:21;20.67;;;5.60;;
10557;SDS011;5327;47.238;-2.304;2022-09-03T16:30:00;23.43;;;6.30;;
10557;SDS011;5327;47.238;-2.304;2022-09-03T16:35:10;40.87;;;10.40;;
10557;SDS011;5327;47.238;-2.304;2022-09-03T16:45:31;20.57;;;5.57;;
10557;SDS011;5327;47.238;-2.304;2022-09-03T16:48:18;30.17;;;8.20;;
10557;SDS011;5327;47.238;-2.304;2022-09-03T17:06:13;27.00;;;6.87;;
10557;SDS011;5327;47.238;-2.304;2022-09-03T17:18:54;23.30;;;6.33;;
10557;SDS011;5327;47.238;-2.304;2022-09-03T17:31:53;19.60;;;6.50;;
10557;SDS011;5327;47.238;-2.304;2022-09-03T17:47:41;19.30;;;4.70;;
10557;SDS011;5327;47.238;-2.304;2022-09-03T17:50:17;19.57;;;4.80;;
10557;SDS011;5327;47.238;-2.304;2022-09-03T17:52:48;17.80;;;5.20;;
10557;SDS011;5327;47.238;-2.304;2022-09-03T18:03:38;21.53;;;6.63;;
10557;SDS011;5327;47.238;-2.304;2022-09-03T18:06:11;23.70;;;7.13;;
10557;SDS011;5327;47.238;-2.304;2022-09-03T18:11:17;24.40;;;5.70;;
10557;SDS011;5327;47.238;-2.304;2022-09-03T18:16:25;16.93;;;5.10;;
10557;SDS011;5327;47.238;-2.304;2022-09-03T18:18:52;18.93;;;5.10;;
10557;SDS011;5327;47.238;-2.304;2022-09-03T18:21:23;23.13;;;5.90;;
10557;SDS011;5327;47.238;-2.304;2022-09-03T18:24:20;20.37;;;5.70;;
10557;SDS011;5327;47.238;-2.304;2022-09-03T18:27:26;19.73;;;5.70;;
10557;SDS011;5327;47.238;-2.304;2022-09-03T18:30:13;23.10;;;6.00;;
10557;SDS011;5327;47.238;-2.304;2022-09-03T18:32:58;25.80;;;5.40;;
10557;SDS011;5327;47.238;-2.304;2022-09-03T18:35:43;33.73;;;8.17;;
10557;SDS011;5327;47.238;-2.304;2022-09-03T18:38:30;21.13;;;5.50;;
10557;SDS011;5327;47.238;-2.304;2022-09-03T18:41:21;28.60;;;7.03;;
10557;SDS011;5327;47.238;-2.304;2022-09-03T18:46:58;19.70;;;5.93;;
10557;SDS011;5327;47.238;-2.304;2022-09-03T18:53:13;26.60;;;6.20;;
10557;SDS011;5327;47.238;-2.304;2022-09-03T18:56:10;16.33;;;4.73;;
10557;SDS011;5327;47.238;-2.304;2022-09-03T18:59:12;19.37;;;6.07;;
10557;SDS011;5327;47.238;-2.304;2022-09-03T19:02:02;23.33;;;6.63;;
10557;SDS011;5327;47.238;-2.304;2022-09-03T19:05:12;25.10;;;5.70;;
10557;SDS011;5327;47.238;-2.304;2022-09-03T19:08:01;31.63;;;7.93;;
10557;SDS011;5327;47.238;-2.304;2022-09-03T19:11:09;23.00;;;5.53;;
10557;SDS011;5327;47.238;-2.304;2022-09-03T19:14:05;23.97;;;6.17;;
10557;SDS011;5327;47.238;-2.304;2022-09-03T19:16:59;25.13;;;5.80;;
10557;SDS011;5327;47.238;-2.304;2022-09-03T19:22:38;23.03;;;6.00;;
10557;SDS011;5327;47.238;-2.304;2022-09-03T19:25:24;22.50;;;6.07;;
10557;SDS011;5327;47.238;-2.304;2022-09-03T19:28:14;30.80;;;7.73;;
10557;SDS011;5327;47.238;-2.304;2022-09-03T19:36:38;20.57;;;6.00;;
10557;SDS011;5327;47.238;-2.304;2022-09-03T19:50:40;39.33;;;9.00;;
10557;SDS011;5327;47.238;-2.304;2022-09-03T19:53:26;27.00;;;7.60;;
10557;SDS011;5327;47.238;-2.304;2022-09-03T19:56:14;19.33;;;5.40;;
10557;SDS011;5327;47.238;-2.304;2022-09-03T19:59:02;19.20;;;5.47;;
10557;SDS011;5327;47.238;-2.304;2022-09-03T20:01:48;23.80;;;6.00;;
10557;SDS011;5327;47.238;-2.304;2022-09-03T20:04:35;23.53;;;6.73;;
10557;SDS011;5327;47.238;-2.304;2022-09-03T20:07:21;20.73;;;4.80;;
10557;SDS011;5327;47.238;-2.304;2022-09-03T20:10:08;23.30;;;4.80;;
10557;SDS011;5327;47.238;-2.304;2022-09-03T20:15:19;14.67;;;4.17;;
10557;SDS011;5327;47.238;-2.304;2022-09-03T20:30:14;21.67;;;4.83;;